Terminal Aerodrome Forecast
Issued by NWS Omaha/Valley, NE

Home | Current Version | Previous Version | Text Only | Print | Product List | Glossary On
Versions: 1 2 3 4 5 6 7 8 9 10 11 12 13 14 15 16 17 18 19 20 21 22 23 24 25
000
FTUS43 KOAX 141120
TAFLNK
TAF
KLNK 141120Z 1412/1512 18013KT P6SM OVC040
     FM141400 24007KT P6SM OVC035
     FM141900 32008KT P6SM BKN100
     FM142300 VRB05KT P6SM BKN080=

USA.gov is the U.S. government's official web portal to all federal, state and local government web resources and services.